createdAt,value
2022-09-25T00:00:27.000Z,284.84
2022-09-25T00:02:33.000Z,284.77
2022-09-25T00:04:00.000Z,284.84
2022-09-25T00:06:06.000Z,284.84
2022-09-25T00:07:32.000Z,284.84
2022-09-25T00:09:38.000Z,284.77
2022-09-25T00:11:05.000Z,284.77
2022-09-25T00:13:11.000Z,284.77
2022-09-25T00:14:37.000Z,284.84
2022-09-25T00:16:44.000Z,284.77
2022-09-25T00:18:10.000Z,284.77
2022-09-25T00:20:16.000Z,284.71
2022-09-25T00:21:43.000Z,284.71
2022-09-25T00:23:49.000Z,284.71
2022-09-25T00:25:16.000Z,284.77
2022-09-25T00:27:22.000Z,284.71
2022-09-25T00:28:48.000Z,284.77
2022-09-25T00:30:54.000Z,284.77
2022-09-25T00:32:21.000Z,284.77
2022-09-25T00:34:27.000Z,284.71
2022-09-25T00:37:19.000Z,284.77
2022-09-25T00:38:45.000Z,284.84
2022-09-25T00:40:51.000Z,284.84
2022-09-25T00:42:18.000Z,284.77
2022-09-25T00:44:24.000Z,284.77
2022-09-25T00:45:51.000Z,284.77
2022-09-25T00:47:57.000Z,284.77
2022-09-25T00:49:23.000Z,284.77
2022-09-25T00:51:29.000Z,284.77
2022-09-25T00:52:56.000Z,284.77
2022-09-25T00:55:02.000Z,284.71
2022-09-25T00:56:29.000Z,284.71
2022-09-25T00:58:35.000Z,284.71
2022-09-25T01:00:01.000Z,284.71
2022-09-25T01:02:07.000Z,284.71
2022-09-25T01:03:34.000Z,284.71
2022-09-25T01:05:40.000Z,284.71
2022-09-25T01:07:07.000Z,284.71
2022-09-25T01:09:13.000Z,284.71
2022-09-25T01:10:39.000Z,284.77
2022-09-25T01:12:45.000Z,284.77
2022-09-25T01:15:36.000Z,284.71
2022-09-25T01:17:03.000Z,284.71
2022-09-25T01:19:09.000Z,284.65
2022-09-25T01:20:36.000Z,284.65
2022-09-25T01:22:42.000Z,284.71
2022-09-25T01:24:08.000Z,284.65
2022-09-25T01:26:15.000Z,284.65
2022-09-25T01:27:41.000Z,284.71
2022-09-25T01:29:47.000Z,284.65
2022-09-25T01:31:14.000Z,284.71
2022-09-25T01:33:20.000Z,284.65
2022-09-25T01:34:47.000Z,284.65
2022-09-25T01:36:53.000Z,284.65
2022-09-25T01:38:19.000Z,284.65
2022-09-25T01:40:25.000Z,284.59
2022-09-25T01:41:52.000Z,284.59
2022-09-25T01:43:58.000Z,284.52
2022-09-25T01:45:24.000Z,284.52
2022-09-25T01:47:31.000Z,284.52
2022-09-25T01:48:57.000Z,284.52
2022-09-25T01:51:03.000Z,284.46
2022-09-25T01:53:54.000Z,284.46
2022-09-25T01:55:21.000Z,284.4
2022-09-25T01:57:27.000Z,284.4
2022-09-25T01:58:53.000Z,284.46
2022-09-25T02:00:59.000Z,284.46
2022-09-25T02:02:26.000Z,284.46
2022-09-25T02:04:32.000Z,284.46
2022-09-25T02:05:59.000Z,284.4
2022-09-25T02:08:05.000Z,284.4
2022-09-25T02:09:31.000Z,284.4
2022-09-25T02:11:37.000Z,284.34
2022-09-25T02:13:04.000Z,284.4
2022-09-25T02:15:10.000Z,284.4
2022-09-25T02:16:36.000Z,284.4
2022-09-25T02:18:43.000Z,284.4
2022-09-25T02:20:09.000Z,284.4
2022-09-25T02:22:15.000Z,284.46
2022-09-25T02:23:42.000Z,284.46
2022-09-25T02:25:48.000Z,284.46
2022-09-25T02:27:14.000Z,284.46
2022-09-25T02:29:21.000Z,284.52
2022-09-25T02:32:12.000Z,284.4
2022-09-25T02:33:38.000Z,284.34
2022-09-25T02:35:44.000Z,284.27
2022-09-25T02:37:11.000Z,284.27
2022-09-25T02:39:17.000Z,284.27
2022-09-25T02:40:44.000Z,284.27
2022-09-25T02:42:50.000Z,284.27
2022-09-25T02:44:16.000Z,284.27
2022-09-25T02:46:22.000Z,284.27
2022-09-25T02:47:49.000Z,284.34
2022-09-25T02:49:55.000Z,284.34
2022-09-25T02:51:21.000Z,284.34
2022-09-25T02:53:28.000Z,284.27
2022-09-25T02:54:54.000Z,284.21
2022-09-25T02:57:00.000Z,284.15
2022-09-25T02:58:28.000Z,284.15
2022-09-25T03:00:35.000Z,284.15
2022-09-25T03:02:01.000Z,284.15
2022-09-25T03:04:07.000Z,284.15
2022-09-25T03:05:34.000Z,284.15
2022-09-25T03:07:40.000Z,284.15
2022-09-25T03:10:31.000Z,284.15
2022-09-25T03:11:58.000Z,284.15
2022-09-25T03:14:04.000Z,284.15
2022-09-25T03:15:31.000Z,284.21
2022-09-25T03:17:37.000Z,284.21
2022-09-25T03:19:03.000Z,284.21
2022-09-25T03:21:09.000Z,284.21
2022-09-25T03:22:36.000Z,284.27
2022-09-25T03:24:42.000Z,284.27
2022-09-25T03:26:08.000Z,284.27
2022-09-25T03:28:14.000Z,284.27
2022-09-25T03:29:41.000Z,284.27
2022-09-25T03:31:47.000Z,284.27
2022-09-25T03:33:14.000Z,284.27
2022-09-25T03:35:20.000Z,284.27
2022-09-25T03:36:46.000Z,284.27
2022-09-25T03:38:52.000Z,284.27
2022-09-25T03:40:19.000Z,284.27
2022-09-25T03:42:25.000Z,284.34
2022-09-25T03:43:51.000Z,284.34
2022-09-25T03:45:58.000Z,284.34
2022-09-25T03:48:49.000Z,284.34
2022-09-25T03:50:15.000Z,284.34
2022-09-25T03:52:21.000Z,284.34
2022-09-25T03:53:48.000Z,284.34
2022-09-25T03:55:54.000Z,284.27
2022-09-25T03:57:20.000Z,284.21
2022-09-25T03:59:26.000Z,284.21
2022-09-25T04:00:53.000Z,284.27
2022-09-25T04:02:59.000Z,284.27
2022-09-25T04:04:26.000Z,284.34
2022-09-25T04:06:32.000Z,284.27
2022-09-25T04:07:58.000Z,284.34
2022-09-25T04:10:04.000Z,284.27
2022-09-25T04:11:31.000Z,284.34
2022-09-25T04:13:37.000Z,284.27
2022-09-25T04:15:03.000Z,284.21
2022-09-25T04:17:10.000Z,284.15
2022-09-25T04:18:36.000Z,284.15
2022-09-25T04:20:42.000Z,284.09
2022-09-25T04:22:09.000Z,284.09
2022-09-25T04:24:15.000Z,284.09
2022-09-25T04:27:06.000Z,284.09
2022-09-25T04:28:33.000Z,284.09
2022-09-25T04:30:39.000Z,284.15
2022-09-25T04:32:05.000Z,284.09
2022-09-25T04:34:12.000Z,284.15
2022-09-25T04:35:38.000Z,284.15
2022-09-25T04:37:44.000Z,284.15
2022-09-25T04:39:11.000Z,284.15
2022-09-25T04:41:17.000Z,284.15
2022-09-25T04:42:43.000Z,284.15
2022-09-25T04:44:49.000Z,284.15
2022-09-25T04:46:16.000Z,284.21
2022-09-25T04:48:26.000Z,284.15
2022-09-25T04:49:52.000Z,284.15
2022-09-25T04:51:58.000Z,284.15
2022-09-25T04:53:25.000Z,284.09
2022-09-25T04:55:31.000Z,284.15
2022-09-25T04:56:57.000Z,284.15
2022-09-25T04:59:04.000Z,284.15
2022-09-25T05:00:30.000Z,284.15
2022-09-25T05:02:36.000Z,284.15
2022-09-25T05:05:27.000Z,284.15
2022-09-25T05:06:54.000Z,284.15
2022-09-25T05:09:00.000Z,284.15
2022-09-25T05:10:26.000Z,284.21
2022-09-25T05:12:33.000Z,284.15
2022-09-25T05:13:59.000Z,284.21
2022-09-25T05:16:05.000Z,284.21
2022-09-25T05:17:32.000Z,284.21
2022-09-25T05:19:38.000Z,284.21
2022-09-25T05:21:04.000Z,284.21
2022-09-25T05:23:11.000Z,284.21
2022-09-25T05:24:37.000Z,284.27
2022-09-25T05:26:43.000Z,284.21
2022-09-25T05:28:10.000Z,284.21
2022-09-25T05:30:16.000Z,284.21
2022-09-25T05:31:42.000Z,284.21
2022-09-25T05:33:48.000Z,284.21
2022-09-25T05:35:15.000Z,284.21
2022-09-25T05:37:21.000Z,284.21
2022-09-25T05:38:48.000Z,284.27
2022-09-25T05:40:54.000Z,284.21
2022-09-25T05:43:45.000Z,284.21
2022-09-25T05:45:12.000Z,284.21
2022-09-25T05:47:18.000Z,284.21
2022-09-25T05:48:44.000Z,284.27
2022-09-25T05:50:50.000Z,284.21
2022-09-25T05:52:17.000Z,284.21
2022-09-25T05:54:23.000Z,284.27
2022-09-25T05:55:49.000Z,284.27
2022-09-25T05:57:55.000Z,284.27
2022-09-25T05:59:22.000Z,284.27
2022-09-25T06:01:28.000Z,284.27
2022-09-25T06:02:55.000Z,284.27
2022-09-25T06:05:01.000Z,284.27
2022-09-25T06:06:27.000Z,284.27
2022-09-25T06:08:33.000Z,284.27
2022-09-25T06:10:00.000Z,284.27
2022-09-25T06:12:06.000Z,284.34
2022-09-25T06:13:33.000Z,284.34
2022-09-25T06:15:39.000Z,284.4
2022-09-25T06:17:06.000Z,284.4
2022-09-25T06:19:12.000Z,284.4
2022-09-25T06:22:03.000Z,284.34
2022-09-25T06:23:29.000Z,284.34
2022-09-25T06:25:36.000Z,284.4
2022-09-25T06:27:02.000Z,284.4
2022-09-25T06:29:08.000Z,284.4
2022-09-25T06:30:35.000Z,284.4
2022-09-25T06:32:41.000Z,284.46
2022-09-25T06:34:07.000Z,284.46
2022-09-25T06:36:13.000Z,284.4
2022-09-25T06:37:40.000Z,284.46
2022-09-25T06:39:46.000Z,284.46
2022-09-25T06:41:12.000Z,284.46
2022-09-25T06:43:19.000Z,284.46
2022-09-25T06:44:45.000Z,284.46
2022-09-25T06:46:51.000Z,284.46
2022-09-25T06:48:18.000Z,284.46
2022-09-25T06:50:24.000Z,284.4
2022-09-25T06:51:50.000Z,284.46
2022-09-25T06:53:57.000Z,284.46
2022-09-25T06:55:23.000Z,284.46
2022-09-25T06:57:29.000Z,284.52
2022-09-25T07:00:21.000Z,284.52
2022-09-25T07:01:47.000Z,284.52
2022-09-25T07:03:54.000Z,284.59
2022-09-25T07:05:20.000Z,284.59
2022-09-25T07:07:26.000Z,284.59
2022-09-25T07:08:53.000Z,284.59
2022-09-25T07:10:59.000Z,284.59
2022-09-25T07:12:25.000Z,284.59
2022-09-25T07:14:31.000Z,284.59
2022-09-25T07:15:58.000Z,284.59
2022-09-25T07:18:04.000Z,284.65
2022-09-25T07:19:31.000Z,284.71
2022-09-25T07:21:37.000Z,284.71
2022-09-25T07:23:03.000Z,284.65
2022-09-25T07:25:09.000Z,284.71
2022-09-25T07:26:36.000Z,284.71
2022-09-25T07:28:47.000Z,284.71
2022-09-25T07:30:13.000Z,284.71
2022-09-25T07:32:19.000Z,284.77
2022-09-25T07:33:46.000Z,284.77
2022-09-25T07:35:52.000Z,284.84
2022-09-25T07:38:43.000Z,284.84
2022-09-25T07:40:10.000Z,284.84
2022-09-25T07:42:16.000Z,284.84
2022-09-25T07:43:42.000Z,284.9
2022-09-25T07:45:49.000Z,284.9
2022-09-25T07:47:15.000Z,284.9
2022-09-25T07:49:21.000Z,284.9
2022-09-25T07:50:48.000Z,284.9
2022-09-25T07:52:54.000Z,284.96
2022-09-25T07:54:20.000Z,284.96
2022-09-25T07:56:26.000Z,284.96
2022-09-25T07:57:53.000Z,285.02
2022-09-25T07:59:59.000Z,284.96
2022-09-25T08:01:25.000Z,284.96
2022-09-25T08:03:32.000Z,284.96
2022-09-25T08:04:58.000Z,284.96
2022-09-25T08:07:04.000Z,284.96
2022-09-25T08:08:31.000Z,284.96
2022-09-25T08:10:37.000Z,284.96
2022-09-25T08:12:03.000Z,284.96
2022-09-25T08:14:10.000Z,284.96
2022-09-25T08:17:01.000Z,285.02
2022-09-25T08:18:27.000Z,285.02
2022-09-25T08:20:34.000Z,285.02
2022-09-25T08:22:00.000Z,285.02
2022-09-25T08:24:06.000Z,285.09
2022-09-25T08:25:33.000Z,285.09
2022-09-25T08:27:39.000Z,285.09
2022-09-25T08:29:05.000Z,285.09
2022-09-25T08:31:11.000Z,285.09
2022-09-25T08:32:38.000Z,285.15
2022-09-25T08:34:44.000Z,285.15
2022-09-25T08:36:11.000Z,285.15
2022-09-25T08:38:18.000Z,285.21
2022-09-25T08:39:44.000Z,285.21
2022-09-25T08:41:50.000Z,285.21
2022-09-25T08:43:17.000Z,285.27
2022-09-25T08:45:23.000Z,285.27
2022-09-25T08:46:49.000Z,285.34
2022-09-25T08:48:55.000Z,285.4
2022-09-25T08:50:22.000Z,285.46
2022-09-25T08:52:28.000Z,285.52
2022-09-25T08:55:19.000Z,285.46
2022-09-25T08:56:45.000Z,285.52
2022-09-25T08:58:52.000Z,285.59
2022-09-25T09:00:18.000Z,285.65
2022-09-25T09:02:24.000Z,285.71
2022-09-25T09:03:51.000Z,285.65
2022-09-25T09:05:57.000Z,285.71
2022-09-25T09:07:23.000Z,285.65
2022-09-25T09:09:32.000Z,285.71
2022-09-25T09:10:58.000Z,285.77
2022-09-25T09:13:04.000Z,285.77
2022-09-25T09:14:31.000Z,285.77
2022-09-25T09:16:37.000Z,285.71
2022-09-25T09:18:03.000Z,285.71
2022-09-25T09:20:10.000Z,285.65
2022-09-25T09:21:36.000Z,285.65
2022-09-25T09:23:42.000Z,285.65
2022-09-25T09:25:09.000Z,285.65
2022-09-25T09:27:15.000Z,285.65
2022-09-25T09:28:41.000Z,285.59
2022-09-25T09:30:48.000Z,285.71
2022-09-25T09:33:39.000Z,285.77
2022-09-25T09:35:05.000Z,285.77
2022-09-25T09:37:11.000Z,285.84
2022-09-25T09:38:38.000Z,285.84
2022-09-25T09:40:44.000Z,285.9
2022-09-25T09:42:11.000Z,285.9
2022-09-25T09:44:17.000Z,285.96
2022-09-25T09:45:43.000Z,285.96
2022-09-25T09:47:49.000Z,286.02
2022-09-25T09:49:16.000Z,285.96
2022-09-25T09:51:22.000Z,286.02
2022-09-25T09:52:48.000Z,286.02
2022-09-25T09:54:55.000Z,286.09
2022-09-25T09:56:21.000Z,286.02
2022-09-25T09:58:27.000Z,286.09
2022-09-25T09:59:54.000Z,286.15
2022-09-25T10:02:06.000Z,286.21
2022-09-25T10:03:33.000Z,286.21
2022-09-25T10:05:39.000Z,286.34
2022-09-25T10:07:05.000Z,286.34
2022-09-25T10:09:11.000Z,286.34
2022-09-25T10:12:03.000Z,286.4
2022-09-25T10:13:29.000Z,286.4
2022-09-25T10:15:36.000Z,286.46
2022-09-25T10:17:02.000Z,286.46
2022-09-25T10:19:08.000Z,286.46
2022-09-25T10:20:35.000Z,286.46
2022-09-25T10:22:41.000Z,286.4
2022-09-25T10:24:07.000Z,286.46
2022-09-25T10:26:13.000Z,286.4
2022-09-25T10:27:40.000Z,286.46
2022-09-25T10:29:46.000Z,286.52
2022-09-25T10:31:13.000Z,286.52
2022-09-25T10:33:19.000Z,286.46
2022-09-25T10:34:45.000Z,286.52
2022-09-25T10:36:51.000Z,286.52
2022-09-25T10:38:18.000Z,286.52
2022-09-25T10:40:24.000Z,286.46
2022-09-25T10:41:51.000Z,286.46
2022-09-25T10:43:57.000Z,286.52
2022-09-25T10:45:23.000Z,286.59
2022-09-25T10:47:30.000Z,286.65
2022-09-25T10:50:21.000Z,286.65
2022-09-25T10:51:47.000Z,286.71
2022-09-25T10:53:53.000Z,286.71
2022-09-25T10:55:20.000Z,286.77
2022-09-25T10:57:26.000Z,286.71
2022-09-25T10:58:52.000Z,286.77
2022-09-25T11:00:58.000Z,286.77
2022-09-25T11:02:25.000Z,286.77
2022-09-25T11:04:31.000Z,286.59
2022-09-25T11:05:57.000Z,286.52
2022-09-25T11:08:03.000Z,286.46
2022-09-25T11:09:30.000Z,286.4
2022-09-25T11:11:36.000Z,286.27
2022-09-25T11:13:03.000Z,286.21
2022-09-25T11:15:09.000Z,286.27
2022-09-25T11:16:36.000Z,286.21
2022-09-25T11:18:42.000Z,286.21
2022-09-25T11:20:08.000Z,286.21
2022-09-25T11:22:14.000Z,286.21
2022-09-25T11:23:41.000Z,286.15
2022-09-25T11:25:47.000Z,286.09
2022-09-25T11:28:38.000Z,286.09
2022-09-25T11:30:05.000Z,286.09
2022-09-25T11:32:11.000Z,286.09
2022-09-25T11:33:37.000Z,286.09
2022-09-25T11:35:43.000Z,286.09
2022-09-25T11:37:10.000Z,286.02
2022-09-25T11:39:16.000Z,285.96
2022-09-25T11:40:42.000Z,285.96
2022-09-25T11:42:48.000Z,286.02
2022-09-25T11:44:15.000Z,285.96
2022-09-25T11:46:21.000Z,285.96
2022-09-25T11:47:48.000Z,285.96
2022-09-25T11:49:54.000Z,285.9
2022-09-25T11:51:20.000Z,286.02
2022-09-25T11:53:26.000Z,285.96
2022-09-25T11:54:53.000Z,285.96
2022-09-25T11:56:59.000Z,285.96
2022-09-25T11:58:26.000Z,285.9
2022-09-25T12:00:32.000Z,285.9
2022-09-25T12:01:58.000Z,285.9
2022-09-25T12:04:04.000Z,285.9
2022-09-25T12:06:55.000Z,285.84
2022-09-25T12:08:22.000Z,285.96
2022-09-25T12:10:28.000Z,285.96
2022-09-25T12:11:55.000Z,285.96
2022-09-25T12:14:01.000Z,285.96
2022-09-25T12:15:27.000Z,286.02
2022-09-25T12:17:34.000Z,285.9
2022-09-25T12:19:00.000Z,285.96
2022-09-25T12:21:06.000Z,285.9
2022-09-25T12:22:33.000Z,285.9
2022-09-25T12:24:39.000Z,285.84
2022-09-25T12:26:05.000Z,285.9
2022-09-25T12:28:11.000Z,285.96
2022-09-25T12:29:38.000Z,286.02
2022-09-25T12:31:44.000Z,286.02
2022-09-25T12:33:10.000Z,286.02
2022-09-25T12:35:16.000Z,286.15
2022-09-25T12:36:43.000Z,286.21
2022-09-25T12:38:49.000Z,286.15
2022-09-25T12:40:16.000Z,286.15
2022-09-25T12:42:22.000Z,286.02
2022-09-25T12:45:13.000Z,286.02
2022-09-25T12:46:39.000Z,286.09
2022-09-25T12:48:45.000Z,286.02
2022-09-25T12:50:12.000Z,286.02
2022-09-25T12:52:18.000Z,286.09
2022-09-25T12:53:44.000Z,286.02
2022-09-25T12:55:50.000Z,286.02
2022-09-25T12:57:17.000Z,286.02
2022-09-25T12:59:23.000Z,286.02
2022-09-25T13:00:50.000Z,286.02
2022-09-25T13:02:56.000Z,286.02
2022-09-25T13:04:22.000Z,286.02
2022-09-25T13:06:29.000Z,286.02
2022-09-25T13:07:55.000Z,286.02
2022-09-25T13:10:01.000Z,286.02
2022-09-25T13:11:28.000Z,286.09
2022-09-25T13:13:34.000Z,286.15
2022-09-25T13:15:00.000Z,286.09
2022-09-25T13:17:06.000Z,286.09
2022-09-25T13:18:33.000Z,286.09
2022-09-25T13:20:39.000Z,285.96
2022-09-25T13:23:30.000Z,286.09
2022-09-25T13:24:57.000Z,286.02
2022-09-25T13:27:03.000Z,286.02
2022-09-25T13:28:29.000Z,286.02
2022-09-25T13:30:35.000Z,285.96
2022-09-25T13:32:02.000Z,285.96
2022-09-25T13:34:08.000Z,285.9
2022-09-25T13:35:35.000Z,285.96
2022-09-25T13:37:41.000Z,286.02
2022-09-25T13:39:07.000Z,286.02
2022-09-25T13:41:13.000Z,286.02
2022-09-25T13:42:40.000Z,286.02
2022-09-25T13:44:46.000Z,286.02
2022-09-25T13:46:13.000Z,285.96
2022-09-25T13:48:19.000Z,285.96
2022-09-25T13:49:45.000Z,285.96
2022-09-25T13:51:52.000Z,285.96
2022-09-25T13:53:18.000Z,285.96
2022-09-25T13:55:24.000Z,285.96
2022-09-25T13:56:51.000Z,286.02
2022-09-25T13:58:57.000Z,285.9
2022-09-25T14:01:48.000Z,286.02
2022-09-25T14:03:15.000Z,286.02
2022-09-25T14:05:21.000Z,285.96
2022-09-25T14:06:48.000Z,286.02
2022-09-25T14:08:54.000Z,286.09
2022-09-25T14:10:21.000Z,286.09
2022-09-25T14:12:27.000Z,286.02
2022-09-25T14:13:53.000Z,286.02
2022-09-25T14:15:59.000Z,285.96
2022-09-25T14:17:26.000Z,285.96
2022-09-25T14:19:32.000Z,285.96
2022-09-25T14:20:59.000Z,285.96
2022-09-25T14:23:05.000Z,285.96
2022-09-25T14:24:31.000Z,286.02
2022-09-25T14:26:37.000Z,286.02
2022-09-25T14:28:04.000Z,285.96
2022-09-25T14:30:10.000Z,286.02
2022-09-25T14:31:36.000Z,286.02
2022-09-25T14:33:43.000Z,286.02
2022-09-25T14:35:09.000Z,286.02
2022-09-25T14:37:15.000Z,286.15
2022-09-25T14:40:06.000Z,286.15
2022-09-25T14:41:33.000Z,286.21
2022-09-25T14:43:39.000Z,286.15
2022-09-25T14:45:06.000Z,286.21
2022-09-25T14:47:12.000Z,286.21
2022-09-25T14:48:39.000Z,286.21
2022-09-25T14:50:45.000Z,286.21
2022-09-25T14:52:11.000Z,286.21
2022-09-25T14:54:17.000Z,286.34
2022-09-25T14:55:44.000Z,286.27
2022-09-25T14:57:50.000Z,286.27
2022-09-25T14:59:16.000Z,286.27
2022-09-25T15:01:23.000Z,286.34
2022-09-25T15:02:49.000Z,286.27
2022-09-25T15:04:56.000Z,286.21
2022-09-25T15:06:22.000Z,286.27
2022-09-25T15:08:28.000Z,286.15
2022-09-25T15:09:55.000Z,286.15
2022-09-25T15:12:01.000Z,286.15
2022-09-25T15:13:27.000Z,286.15
2022-09-25T15:15:33.000Z,286.15
2022-09-25T15:18:24.000Z,286.15
2022-09-25T15:19:51.000Z,286.15
2022-09-25T15:21:57.000Z,286.21
2022-09-25T15:23:23.000Z,286.21
2022-09-25T15:25:30.000Z,286.21
2022-09-25T15:26:56.000Z,286.21
2022-09-25T15:29:02.000Z,286.27
2022-09-25T15:30:29.000Z,286.21
2022-09-25T15:32:35.000Z,286.21
2022-09-25T15:34:01.000Z,286.21
2022-09-25T15:36:08.000Z,286.21
2022-09-25T15:37:34.000Z,286.15
2022-09-25T15:39:40.000Z,286.15
2022-09-25T15:41:07.000Z,286.15
2022-09-25T15:43:13.000Z,286.09
2022-09-25T15:44:39.000Z,286.09
2022-09-25T15:46:46.000Z,286.02
2022-09-25T15:48:12.000Z,285.96
2022-09-25T15:50:18.000Z,285.84
2022-09-25T15:51:45.000Z,285.9
2022-09-25T15:53:56.000Z,285.96
2022-09-25T15:56:47.000Z,285.96
2022-09-25T15:58:14.000Z,285.96
2022-09-25T16:00:20.000Z,285.84
2022-09-25T16:01:46.000Z,285.84
2022-09-25T16:03:53.000Z,285.77
2022-09-25T16:05:19.000Z,285.71
2022-09-25T16:07:25.000Z,285.71
2022-09-25T16:08:52.000Z,285.71
2022-09-25T16:10:58.000Z,285.77
2022-09-25T16:12:24.000Z,285.77
2022-09-25T16:14:31.000Z,285.65
2022-09-25T16:15:57.000Z,285.65
2022-09-25T16:18:03.000Z,285.65
2022-09-25T16:19:30.000Z,285.65
2022-09-25T16:21:36.000Z,285.59
2022-09-25T16:23:03.000Z,285.52
2022-09-25T16:25:09.000Z,285.59
2022-09-25T16:26:35.000Z,285.52
2022-09-25T16:28:41.000Z,285.52
2022-09-25T16:30:08.000Z,285.52
2022-09-25T16:32:14.000Z,285.52
2022-09-25T16:35:05.000Z,285.52
2022-09-25T16:36:32.000Z,285.46
2022-09-25T16:38:38.000Z,285.46
2022-09-25T16:40:04.000Z,285.4
2022-09-25T16:42:10.000Z,285.34
2022-09-25T16:43:37.000Z,285.4
2022-09-25T16:45:43.000Z,285.34
2022-09-25T16:47:09.000Z,285.34
2022-09-25T16:49:15.000Z,285.27
2022-09-25T16:50:42.000Z,285.27
2022-09-25T16:52:48.000Z,285.34
2022-09-25T16:54:15.000Z,285.34
2022-09-25T16:56:21.000Z,285.27
2022-09-25T16:57:47.000Z,285.34
2022-09-25T16:59:53.000Z,285.34
2022-09-25T17:01:20.000Z,285.34
2022-09-25T17:03:26.000Z,285.21
2022-09-25T17:04:53.000Z,285.21
2022-09-25T17:06:59.000Z,285.21
2022-09-25T17:08:25.000Z,285.15
2022-09-25T17:10:32.000Z,285.21
2022-09-25T17:13:23.000Z,285.15
2022-09-25T17:14:49.000Z,285.09
2022-09-25T17:16:55.000Z,285.15
2022-09-25T17:18:22.000Z,285.15
2022-09-25T17:20:28.000Z,285.02
2022-09-25T17:21:54.000Z,285.02
2022-09-25T17:24:00.000Z,285.02
2022-09-25T17:25:27.000Z,285.09
2022-09-25T17:27:33.000Z,285.02
2022-09-25T17:28:59.000Z,285.09
2022-09-25T17:31:06.000Z,285.09
2022-09-25T17:32:32.000Z,285.09
2022-09-25T17:34:38.000Z,285.09
2022-09-25T17:36:05.000Z,285.02
2022-09-25T17:38:11.000Z,284.9
2022-09-25T17:39:37.000Z,284.9
2022-09-25T17:41:43.000Z,284.96
2022-09-25T17:43:10.000Z,284.96
2022-09-25T17:45:16.000Z,285.02
2022-09-25T17:46:42.000Z,285.02
2022-09-25T17:48:49.000Z,284.96
2022-09-25T17:51:43.000Z,284.96
2022-09-25T17:53:10.000Z,285.02
2022-09-25T17:55:16.000Z,284.9
2022-09-25T17:56:43.000Z,284.84
2022-09-25T17:58:49.000Z,284.84
2022-09-25T18:00:15.000Z,284.77
2022-09-25T18:02:21.000Z,284.77
2022-09-25T18:03:48.000Z,284.84
2022-09-25T18:05:54.000Z,284.84
2022-09-25T18:07:21.000Z,284.84
2022-09-25T18:09:27.000Z,284.77
2022-09-25T18:10:53.000Z,284.71
2022-09-25T18:12:59.000Z,284.71
2022-09-25T18:14:26.000Z,284.77
2022-09-25T18:16:32.000Z,284.71
2022-09-25T18:17:58.000Z,284.71
2022-09-25T18:20:05.000Z,284.71
2022-09-25T18:21:31.000Z,284.65
2022-09-25T18:23:37.000Z,284.65
2022-09-25T18:25:04.000Z,284.65
2022-09-25T18:27:10.000Z,284.65
2022-09-25T18:30:01.000Z,284.65
2022-09-25T18:31:27.000Z,284.59
2022-09-25T18:33:34.000Z,284.52
2022-09-25T18:35:00.000Z,284.46
2022-09-25T18:37:06.000Z,284.4
2022-09-25T18:38:33.000Z,284.34
2022-09-25T18:40:39.000Z,284.4
2022-09-25T18:42:05.000Z,284.34
2022-09-25T18:44:12.000Z,284.27
2022-09-25T18:45:38.000Z,284.27
2022-09-25T18:47:44.000Z,284.27
2022-09-25T18:49:11.000Z,284.34
2022-09-25T18:51:17.000Z,284.27
2022-09-25T18:52:44.000Z,284.27
2022-09-25T18:54:50.000Z,284.27
2022-09-25T18:56:16.000Z,284.21
2022-09-25T18:58:22.000Z,284.21
2022-09-25T18:59:49.000Z,284.21
2022-09-25T19:01:55.000Z,284.15
2022-09-25T19:03:22.000Z,284.15
2022-09-25T19:05:28.000Z,284.15
2022-09-25T19:08:19.000Z,284.15
2022-09-25T19:09:46.000Z,284.15
2022-09-25T19:11:52.000Z,284.15
2022-09-25T19:13:18.000Z,284.15
2022-09-25T19:15:25.000Z,284.15
2022-09-25T19:16:51.000Z,284.15
2022-09-25T19:18:57.000Z,284.15
2022-09-25T19:20:24.000Z,284.15
2022-09-25T19:22:30.000Z,284.09
2022-09-25T19:23:56.000Z,284.15
2022-09-25T19:26:02.000Z,284.09
2022-09-25T19:27:29.000Z,284.09
2022-09-25T19:29:35.000Z,284.09
2022-09-25T19:31:01.000Z,284.09
2022-09-25T19:33:08.000Z,284.02
2022-09-25T19:34:34.000Z,284.02
2022-09-25T19:36:40.000Z,284.02
2022-09-25T19:38:07.000Z,284.02
2022-09-25T19:40:17.000Z,283.96
2022-09-25T19:41:43.000Z,283.96
2022-09-25T19:43:49.000Z,284.02
2022-09-25T19:46:40.000Z,284.02
2022-09-25T19:48:07.000Z,284.02
2022-09-25T19:50:13.000Z,284.09
2022-09-25T19:51:40.000Z,284.09
2022-09-25T19:53:46.000Z,284.09
2022-09-25T19:55:12.000Z,284.15
2022-09-25T19:57:18.000Z,284.09
2022-09-25T19:58:45.000Z,284.09
2022-09-25T20:00:51.000Z,284.09
2022-09-25T20:02:18.000Z,284.09
2022-09-25T20:04:24.000Z,284.09
2022-09-25T20:05:50.000Z,284.02
2022-09-25T20:07:56.000Z,283.96
2022-09-25T20:09:23.000Z,283.9
2022-09-25T20:11:29.000Z,283.84
2022-09-25T20:12:56.000Z,283.77
2022-09-25T20:15:02.000Z,283.77
2022-09-25T20:16:28.000Z,283.77
2022-09-25T20:18:35.000Z,283.77
2022-09-25T20:20:01.000Z,283.71
2022-09-25T20:22:07.000Z,283.65
2022-09-25T20:24:58.000Z,283.65
2022-09-25T20:26:25.000Z,283.65
2022-09-25T20:28:31.000Z,283.59
2022-09-25T20:29:58.000Z,283.59
2022-09-25T20:32:04.000Z,283.52
2022-09-25T20:33:30.000Z,283.52
2022-09-25T20:35:38.000Z,283.46
2022-09-25T20:37:05.000Z,283.46
2022-09-25T20:39:11.000Z,283.4
2022-09-25T20:40:45.000Z,283.4
2022-09-25T20:42:51.000Z,283.4
2022-09-25T20:44:17.000Z,283.34
2022-09-25T20:46:24.000Z,283.27
2022-09-25T20:47:50.000Z,283.27
2022-09-25T20:49:56.000Z,283.21
2022-09-25T20:51:23.000Z,283.21
2022-09-25T20:53:29.000Z,283.15
2022-09-25T20:54:55.000Z,283.15
2022-09-25T20:57:02.000Z,283.02
2022-09-25T20:58:28.000Z,282.96
2022-09-25T21:00:34.000Z,282.9
2022-09-25T21:03:25.000Z,282.84
2022-09-25T21:04:52.000Z,282.77
2022-09-25T21:06:58.000Z,282.71
2022-09-25T21:08:24.000Z,282.65
2022-09-25T21:10:30.000Z,282.52
2022-09-25T21:11:57.000Z,282.52
2022-09-25T21:14:03.000Z,282.4
2022-09-25T21:15:30.000Z,282.4
2022-09-25T21:17:36.000Z,282.34
2022-09-25T21:19:02.000Z,282.34
2022-09-25T21:21:08.000Z,282.34
2022-09-25T21:22:35.000Z,282.27
2022-09-25T21:24:41.000Z,282.21
2022-09-25T21:26:08.000Z,282.21
2022-09-25T21:28:14.000Z,282.15
2022-09-25T21:29:40.000Z,282.15
2022-09-25T21:31:46.000Z,282.02
2022-09-25T21:33:15.000Z,282.02
2022-09-25T21:35:21.000Z,282.02
2022-09-25T21:36:47.000Z,282.02
2022-09-25T21:38:53.000Z,282.02
2022-09-25T21:41:45.000Z,282.15
2022-09-25T21:43:11.000Z,282.09
2022-09-25T21:45:17.000Z,282.09
2022-09-25T21:46:44.000Z,282.02
2022-09-25T21:48:50.000Z,281.84
2022-09-25T21:50:16.000Z,281.71
2022-09-25T21:52:23.000Z,281.65
2022-09-25T21:53:49.000Z,281.65
2022-09-25T21:55:55.000Z,281.52
2022-09-25T21:57:22.000Z,281.46
2022-09-25T21:59:28.000Z,281.4
2022-09-25T22:00:54.000Z,281.46
2022-09-25T22:03:01.000Z,281.34
2022-09-25T22:04:27.000Z,281.34
2022-09-25T22:06:33.000Z,281.21
2022-09-25T22:08:00.000Z,281.21
2022-09-25T22:10:06.000Z,281.09
2022-09-25T22:11:32.000Z,281.02
2022-09-25T22:13:39.000Z,281.02
2022-09-25T22:15:05.000Z,280.96
2022-09-25T22:17:11.000Z,280.9
2022-09-25T22:20:02.000Z,280.84
2022-09-25T22:21:30.000Z,280.84
2022-09-25T22:23:36.000Z,280.84
2022-09-25T22:25:02.000Z,280.84
2022-09-25T22:27:08.000Z,280.77
2022-09-25T22:28:35.000Z,280.77
2022-09-25T22:30:41.000Z,280.77
2022-09-25T22:32:08.000Z,280.71
2022-09-25T22:34:14.000Z,280.65
2022-09-25T22:35:40.000Z,280.65
2022-09-25T22:37:46.000Z,280.59
2022-09-25T22:39:13.000Z,280.59
2022-09-25T22:41:19.000Z,280.52
2022-09-25T22:42:45.000Z,280.59
2022-09-25T22:44:51.000Z,280.52
2022-09-25T22:46:18.000Z,280.52
2022-09-25T22:48:24.000Z,280.46